createdAt,value
2018-06-05T00:02:27.681Z,87.86
2018-06-05T00:05:02.013Z,88.28
2018-06-05T00:07:36.647Z,87.87
2018-06-05T00:10:11.163Z,87.98
2018-06-05T00:12:45.552Z,87.85
2018-06-05T00:15:19.892Z,87.42
2018-06-05T00:17:54.636Z,88.42
2018-06-05T00:20:29.053Z,88.30
2018-06-05T00:23:03.319Z,87.83
2018-06-05T00:25:37.632Z,87.90
2018-06-05T00:28:12.064Z,88.30
2018-06-05T00:30:46.342Z,87.77
2018-06-05T00:33:20.759Z,88.12
2018-06-05T00:35:54.967Z,88.16
2018-06-05T00:38:29.308Z,88.08
2018-06-05T00:41:03.649Z,88.60
2018-06-05T00:43:37.984Z,88.04
2018-06-05T00:46:12.371Z,87.97
2018-06-05T00:48:46.801Z,87.36
2018-06-05T00:51:32.547Z,87.72
2018-06-05T00:54:06.948Z,87.63
2018-06-05T00:56:48.159Z,87.35
2018-06-05T00:59:22.508Z,86.55
2018-06-05T01:01:56.831Z,86.62
2018-06-05T01:04:31.133Z,86.36
2018-06-05T01:07:05.666Z,86.21
2018-06-05T01:09:40.116Z,86.50
2018-06-05T01:12:14.470Z,86.36
2018-06-05T01:14:48.866Z,86.01
2018-06-05T01:17:23.203Z,85.51
2018-06-05T01:19:57.571Z,85.95
2018-06-05T01:22:32.003Z,85.97
2018-06-05T01:25:06.472Z,86.00
2018-06-05T01:27:40.923Z,85.74
2018-06-05T01:30:15.186Z,85.61
2018-06-05T01:32:49.832Z,85.57
2018-06-05T01:35:24.234Z,85.41
2018-06-05T01:37:58.559Z,85.85
2018-06-05T01:40:32.817Z,85.92
2018-06-05T01:43:07.027Z,85.87
2018-06-05T01:45:41.472Z,85.98
2018-06-05T01:48:15.823Z,85.89
2018-06-05T01:50:50.250Z,86.57
2018-06-05T01:53:31.279Z,86.19
2018-06-05T01:56:05.759Z,86.41
2018-06-05T01:58:40.176Z,85.49
2018-06-05T02:01:14.609Z,85.17
2018-06-05T02:03:48.987Z,85.45
2018-06-05T02:06:23.279Z,85.94
2018-06-05T02:08:57.698Z,85.58
2018-06-05T02:11:32.064Z,86.60
2018-06-05T02:14:06.468Z,87.26
2018-06-05T02:16:40.860Z,86.59
2018-06-05T02:19:15.166Z,86.12
2018-06-05T02:21:49.897Z,86.58
2018-06-05T02:24:24.244Z,86.83
2018-06-05T02:26:58.599Z,86.57
2018-06-05T02:29:32.883Z,86.18
2018-06-05T02:32:07.232Z,85.75
2018-06-05T02:34:41.544Z,86.13
2018-06-05T02:37:15.876Z,86.35
2018-06-05T02:39:50.387Z,86.76
2018-06-05T02:42:24.743Z,86.71
2018-06-05T02:44:59.351Z,86.45
2018-06-05T02:47:33.787Z,86.64
2018-06-05T02:50:08.103Z,86.29
2018-06-05T02:52:42.516Z,86.47
2018-06-05T02:55:16.996Z,86.05
2018-06-05T02:57:51.379Z,85.61
2018-06-05T03:00:25.756Z,86.01
2018-06-05T03:03:00.051Z,85.56
2018-06-05T03:05:34.280Z,86.06
2018-06-05T03:08:08.643Z,86.25
2018-06-05T03:10:42.997Z,86.28
2018-06-05T03:13:17.416Z,86.34
2018-06-05T03:15:51.776Z,85.94
2018-06-05T03:18:26.260Z,86.35
2018-06-05T03:21:00.620Z,85.23
2018-06-05T03:23:35.195Z,85.39
2018-06-05T03:26:09.608Z,85.56
2018-06-05T03:28:43.964Z,85.86
2018-06-05T03:31:18.351Z,86.14
2018-06-05T03:33:52.739Z,85.71
2018-06-05T03:36:27.011Z,85.28
2018-06-05T03:39:01.415Z,85.64
2018-06-05T03:41:35.807Z,85.86
2018-06-05T03:44:10.164Z,85.75
2018-06-05T03:46:44.509Z,85.37
2018-06-05T03:49:18.844Z,85.87
2018-06-05T03:51:53.130Z,85.24
2018-06-05T03:54:27.467Z,85.69
2018-06-05T03:57:01.819Z,85.22
2018-06-05T03:59:36.199Z,84.51
2018-06-05T04:02:10.576Z,84.33
2018-06-05T04:04:44.864Z,85.21
2018-06-05T04:07:19.240Z,84.48
2018-06-05T04:09:53.640Z,84.87
2018-06-05T04:12:28.064Z,85.41
2018-06-05T04:15:02.458Z,83.89
2018-06-05T04:17:36.814Z,84.68
2018-06-05T04:20:11.199Z,84.48
2018-06-05T04:22:45.647Z,84.42
2018-06-05T04:25:20.272Z,83.88
2018-06-05T04:27:54.645Z,83.79
2018-06-05T04:30:28.995Z,83.37
2018-06-05T04:33:03.364Z,83.43
2018-06-05T04:35:37.723Z,83.39
2018-06-05T04:38:12.108Z,82.32
2018-06-05T04:40:46.753Z,83.22
2018-06-05T04:43:21.192Z,83.96
2018-06-05T04:45:55.631Z,83.59
2018-06-05T04:48:30.040Z,83.82
2018-06-05T04:51:04.561Z,82.79
2018-06-05T04:53:38.941Z,84.07
2018-06-05T04:56:13.304Z,83.12
2018-06-05T04:58:47.583Z,83.40
2018-06-05T05:01:21.906Z,81.21
2018-06-05T05:03:56.163Z,81.67
2018-06-05T05:06:30.539Z,81.86
2018-06-05T05:09:06.744Z,81.21
2018-06-05T05:11:41.088Z,81.55
2018-06-05T05:14:15.459Z,80.98
2018-06-05T05:16:50.080Z,80.61
2018-06-05T05:19:24.385Z,80.89
2018-06-05T05:21:58.886Z,78.64
2018-06-05T05:24:33.199Z,78.14
2018-06-05T05:27:07.886Z,78.19
2018-06-05T05:29:42.122Z,78.00
2018-06-05T05:32:16.806Z,78.37
2018-06-05T05:34:51.159Z,78.06
2018-06-05T05:37:25.572Z,78.23
2018-06-05T05:39:59.959Z,77.91
2018-06-05T05:42:34.318Z,77.44
2018-06-05T05:45:08.915Z,76.13
2018-06-05T05:47:43.288Z,74.27
2018-06-05T05:50:17.707Z,74.46
2018-06-05T05:52:51.976Z,76.17
2018-06-05T05:55:26.355Z,76.07
2018-06-05T05:58:00.691Z,75.12
2018-06-05T06:00:35.132Z,76.23
2018-06-05T06:03:09.732Z,75.11
2018-06-05T06:05:44.041Z,75.15
2018-06-05T06:08:18.440Z,73.98
2018-06-05T06:10:52.821Z,74.79
2018-06-05T06:13:27.287Z,75.07
2018-06-05T06:16:01.719Z,74.37
2018-06-05T06:18:36.030Z,73.84
2018-06-05T06:21:10.455Z,74.38
2018-06-05T06:23:44.887Z,74.63
2018-06-05T06:26:19.279Z,72.27
2018-06-05T06:28:53.723Z,72.47
2018-06-05T06:31:28.131Z,71.79
2018-06-05T06:34:02.819Z,71.63
2018-06-05T06:36:37.288Z,71.88
2018-06-05T06:39:11.671Z,71.18
2018-06-05T06:41:46.007Z,71.05
2018-06-05T06:44:20.424Z,71.04
2018-06-05T06:46:54.835Z,70.34
2018-06-05T06:49:29.595Z,69.71
2018-06-05T06:52:03.872Z,70.64
2018-06-05T06:54:38.219Z,68.78
2018-06-05T06:57:12.636Z,68.89
2018-06-05T06:59:47.063Z,69.27
2018-06-05T07:02:21.306Z,67.27
2018-06-05T07:04:55.583Z,70.17
2018-06-05T07:07:29.940Z,70.32
2018-06-05T07:10:04.463Z,69.06
2018-06-05T07:12:38.954Z,70.73
2018-06-05T07:15:13.288Z,70.28
2018-06-05T07:17:47.495Z,69.53
2018-06-05T07:20:21.845Z,69.04
2018-06-05T07:22:56.050Z,68.40
2018-06-05T07:25:30.365Z,69.55
2018-06-05T07:28:04.678Z,69.47
2018-06-05T07:30:39.123Z,70.29
2018-06-05T07:33:13.416Z,69.27
2018-06-05T07:35:47.858Z,68.39
2018-06-05T07:38:22.685Z,69.78
2018-06-05T07:40:57.123Z,69.85
2018-06-05T07:43:31.486Z,70.42
2018-06-05T07:46:06.204Z,68.25
2018-06-05T07:48:40.683Z,68.67
2018-06-05T07:51:15.021Z,68.73
2018-06-05T07:53:49.299Z,67.13
2018-06-05T07:56:23.788Z,67.66
2018-06-05T07:58:58.142Z,69.00
2018-06-05T08:01:32.614Z,68.53
2018-06-05T08:04:07.088Z,68.77
2018-06-05T08:06:41.724Z,70.35
2018-06-05T08:09:16.225Z,71.15
2018-06-05T08:11:50.696Z,70.00
2018-06-05T08:14:25.131Z,70.19
2018-06-05T08:16:59.724Z,70.48
2018-06-05T08:19:34.300Z,70.92
2018-06-05T08:22:08.719Z,71.33
2018-06-05T08:24:43.289Z,71.33
2018-06-05T08:27:17.884Z,71.77
2018-06-05T08:29:52.241Z,71.36
2018-06-05T08:32:26.772Z,70.25
2018-06-05T08:35:01.391Z,70.58
2018-06-05T08:37:35.953Z,67.92
2018-06-05T08:40:10.404Z,69.14
2018-06-05T08:42:51.481Z,66.57
2018-06-05T08:45:26.268Z,67.32
2018-06-05T08:48:00.909Z,67.19
2018-06-05T08:50:35.476Z,66.84
2018-06-05T08:53:09.997Z,67.93
2018-06-05T08:55:44.520Z,69.28
2018-06-05T08:58:19.116Z,67.30
2018-06-05T09:00:53.444Z,66.55
2018-06-05T09:03:27.898Z,65.50
2018-06-05T09:06:02.469Z,66.55
2018-06-05T09:08:36.780Z,68.05
2018-06-05T09:11:11.196Z,68.01
2018-06-05T09:13:45.620Z,67.56
2018-06-05T09:16:19.991Z,67.63
2018-06-05T09:18:54.345Z,67.88
2018-06-05T09:21:28.692Z,69.83
2018-06-05T09:24:03.180Z,70.03
2018-06-05T09:26:37.672Z,69.03
2018-06-05T09:29:12.367Z,69.25
2018-06-05T09:31:47.044Z,68.40
2018-06-05T09:34:21.679Z,68.79
2018-06-05T09:36:56.306Z,69.38
2018-06-05T09:39:30.778Z,71.17
2018-06-05T09:42:05.157Z,70.73
2018-06-05T09:44:39.599Z,70.14
2018-06-05T09:47:14.191Z,69.89
2018-06-05T09:49:48.636Z,69.15
2018-06-05T09:52:23.242Z,68.75
2018-06-05T09:54:57.756Z,69.37
2018-06-05T09:57:32.213Z,69.47
2018-06-05T10:00:06.769Z,69.28
2018-06-05T10:02:41.243Z,71.04
2018-06-05T10:05:15.663Z,68.41
2018-06-05T10:07:50.200Z,70.23
2018-06-05T10:10:24.689Z,69.82
2018-06-05T10:12:59.100Z,69.83
2018-06-05T10:15:33.704Z,69.05
2018-06-05T10:18:08.144Z,67.79
2018-06-05T10:20:42.493Z,67.84
2018-06-05T10:23:16.900Z,68.46
2018-06-05T10:25:51.456Z,67.92
2018-06-05T10:28:25.854Z,68.22
2018-06-05T10:31:00.324Z,68.17
2018-06-05T10:33:34.808Z,67.07
2018-06-05T10:36:09.268Z,66.72
2018-06-05T10:38:43.913Z,68.55
2018-06-05T10:41:18.493Z,69.39
2018-06-05T10:43:52.880Z,69.30
2018-06-05T10:46:27.308Z,67.97
2018-06-05T10:49:01.710Z,67.49
2018-06-05T10:51:36.061Z,66.87
2018-06-05T10:54:10.810Z,66.88
2018-06-05T10:56:45.288Z,66.69
2018-06-05T10:59:19.857Z,66.50
2018-06-05T11:01:54.216Z,65.39
2018-06-05T11:04:28.676Z,65.40
2018-06-05T11:07:03.200Z,67.02
2018-06-05T11:09:37.808Z,68.02
2018-06-05T11:12:12.172Z,66.92
2018-06-05T11:14:46.437Z,64.36
2018-06-05T11:17:20.962Z,63.28
2018-06-05T11:19:55.335Z,63.83
2018-06-05T11:22:29.981Z,63.15
2018-06-05T11:25:04.597Z,63.13
2018-06-05T11:27:39.108Z,63.61
2018-06-05T11:30:13.455Z,63.45
2018-06-05T11:32:47.978Z,62.67
2018-06-05T11:35:22.893Z,61.46
2018-06-05T11:37:57.223Z,61.03
2018-06-05T11:40:31.585Z,61.32
2018-06-05T11:43:06.004Z,61.37
2018-06-05T11:45:40.396Z,62.37
2018-06-05T11:48:14.783Z,61.64
2018-06-05T11:50:49.193Z,62.18
2018-06-05T11:53:23.809Z,61.55
2018-06-05T11:55:58.221Z,61.51
2018-06-05T11:58:32.612Z,63.52
2018-06-05T12:01:07.097Z,59.21
2018-06-05T12:03:41.497Z,58.12
2018-06-05T12:06:16.176Z,60.69
2018-06-05T12:08:50.760Z,60.90
2018-06-05T12:11:25.165Z,58.17
2018-06-05T12:13:59.590Z,57.77
2018-06-05T12:16:34.153Z,56.93
2018-06-05T12:19:08.696Z,56.93
2018-06-05T12:21:43.112Z,56.66
2018-06-05T12:24:17.856Z,57.38
2018-06-05T12:26:52.460Z,57.71
2018-06-05T12:29:27.004Z,58.33
2018-06-05T12:32:01.564Z,57.48
2018-06-05T12:34:36.081Z,55.69
2018-06-05T12:37:10.536Z,56.33
2018-06-05T12:39:45.062Z,55.21
2018-06-05T12:42:19.644Z,55.47
2018-06-05T12:44:54.240Z,57.07
2018-06-05T12:47:28.773Z,54.92
2018-06-05T12:50:03.256Z,56.50
2018-06-05T12:52:37.785Z,55.06
2018-06-05T12:55:12.172Z,54.71
2018-06-05T12:57:46.666Z,54.35
2018-06-05T13:00:21.215Z,56.16
2018-06-05T13:02:55.684Z,58.15
2018-06-05T13:05:30.068Z,57.57
2018-06-05T13:08:04.486Z,57.03
2018-06-05T13:10:38.900Z,57.80
2018-06-05T13:13:13.408Z,56.36
2018-06-05T13:15:47.796Z,56.58
2018-06-05T13:18:22.158Z,57.36
2018-06-05T13:20:56.592Z,57.03
2018-06-05T13:23:30.984Z,57.22
2018-06-05T13:26:05.381Z,55.66
2018-06-05T13:28:39.796Z,57.33
2018-06-05T13:31:14.612Z,58.45
2018-06-05T13:33:52.379Z,56.33
2018-06-05T13:36:26.968Z,57.20
2018-06-05T13:39:01.541Z,55.91
2018-06-05T13:41:36.137Z,57.04
2018-06-05T13:44:10.352Z,56.67
2018-06-05T13:46:44.820Z,56.89
2018-06-05T13:49:19.281Z,55.31
2018-06-05T13:51:54.056Z,56.12
2018-06-05T13:54:28.529Z,55.67
2018-06-05T13:57:03.214Z,55.61
2018-06-05T13:59:37.749Z,53.93
2018-06-05T14:02:12.100Z,52.94
2018-06-05T14:04:46.984Z,53.45
2018-06-05T14:07:21.453Z,51.91
2018-06-05T14:09:56.243Z,54.24
2018-06-05T14:12:30.832Z,53.31
2018-06-05T14:15:05.516Z,52.70
2018-06-05T14:17:39.908Z,53.18
2018-06-05T14:20:14.344Z,52.56
2018-06-05T14:22:48.723Z,52.70
2018-06-05T14:25:23.292Z,51.14
2018-06-05T14:27:57.825Z,52.04
2018-06-05T14:30:32.228Z,50.56
2018-06-05T14:33:06.596Z,48.65
2018-06-05T14:35:40.968Z,47.29
2018-06-05T14:38:15.311Z,46.63
2018-06-05T14:40:49.908Z,45.28
2018-06-05T14:43:24.312Z,46.18
2018-06-05T14:45:58.665Z,45.46
2018-06-05T14:48:33.113Z,44.44
2018-06-05T14:51:07.917Z,44.62
2018-06-05T14:53:42.632Z,46.00
2018-06-05T14:56:17.477Z,45.14
2018-06-05T14:58:52.032Z,44.02
2018-06-05T15:01:26.608Z,44.07
2018-06-05T15:04:01.092Z,45.68
2018-06-05T15:06:35.644Z,45.90
2018-06-05T15:09:09.990Z,46.74
2018-06-05T15:11:44.304Z,45.94
2018-06-05T15:14:18.679Z,48.07
2018-06-05T15:16:54.815Z,48.84
2018-06-05T15:19:30.033Z,48.85
2018-06-05T15:22:04.692Z,49.50
2018-06-05T15:24:39.180Z,51.47
2018-06-05T15:27:13.548Z,51.66
2018-06-05T15:29:47.995Z,52.94
2018-06-05T15:32:22.436Z,53.76
2018-06-05T15:34:56.746Z,53.52
2018-06-05T15:37:31.320Z,53.30
2018-06-05T15:40:06.004Z,53.66
2018-06-05T15:42:40.394Z,54.40
2018-06-05T15:45:14.881Z,55.10
2018-06-05T15:47:49.300Z,55.65
2018-06-05T15:50:24.127Z,55.07
2018-06-05T15:52:58.528Z,55.50
2018-06-05T15:55:32.917Z,55.55
2018-06-05T15:58:07.598Z,55.25
2018-06-05T16:00:42.336Z,55.49
2018-06-05T16:03:17.102Z,56.98
2018-06-05T16:05:51.660Z,56.48
2018-06-05T16:08:26.030Z,56.57
2018-06-05T16:11:00.432Z,57.22
2018-06-05T16:13:35.009Z,56.55
2018-06-05T16:16:09.435Z,57.07
2018-06-05T16:18:43.900Z,56.47
2018-06-05T16:21:18.388Z,56.45
2018-06-05T16:23:52.695Z,56.19
2018-06-05T16:26:27.097Z,56.58
2018-06-05T16:29:01.407Z,57.13
2018-06-05T16:31:35.703Z,57.54
2018-06-05T16:34:10.087Z,57.56
2018-06-05T16:36:44.400Z,58.09
2018-06-05T16:39:18.845Z,57.56
2018-06-05T16:41:53.252Z,57.92
2018-06-05T16:44:27.698Z,58.12
2018-06-05T16:47:02.096Z,57.61
2018-06-05T16:49:36.455Z,58.83
2018-06-05T16:52:10.823Z,57.39
2018-06-05T16:54:45.067Z,58.42
2018-06-05T16:57:19.440Z,58.50
2018-06-05T16:59:53.740Z,58.00
2018-06-05T17:02:28.024Z,58.29
2018-06-05T17:05:02.421Z,59.03
2018-06-05T17:07:36.791Z,59.38
2018-06-05T17:10:11.152Z,59.23
2018-06-05T17:12:45.574Z,59.06
2018-06-05T17:15:19.939Z,59.29
2018-06-05T17:17:54.315Z,58.23
2018-06-05T17:20:28.600Z,59.44
2018-06-05T17:23:03.179Z,60.14
2018-06-05T17:25:37.631Z,59.58
2018-06-05T17:28:12.059Z,59.63
2018-06-05T17:30:46.444Z,60.11
2018-06-05T17:33:20.807Z,59.07
2018-06-05T17:35:55.153Z,59.57
2018-06-05T17:38:29.564Z,59.83
2018-06-05T17:41:03.921Z,60.11
2018-06-05T17:43:38.212Z,59.09
2018-06-05T17:46:12.583Z,58.89
2018-06-05T17:48:46.947Z,59.68
2018-06-05T17:51:21.313Z,60.66
2018-06-05T17:53:55.887Z,60.56
2018-06-05T17:56:30.687Z,60.19
2018-06-05T17:59:04.999Z,60.56
2018-06-05T18:01:39.516Z,60.01
2018-06-05T18:04:13.915Z,59.98
2018-06-05T18:06:48.194Z,60.63
2018-06-05T18:09:22.591Z,61.03
2018-06-05T18:11:57.030Z,61.86
2018-06-05T18:14:31.735Z,61.57
2018-06-05T18:17:06.311Z,61.57
2018-06-05T18:19:40.711Z,61.55
2018-06-05T18:22:14.996Z,62.24
2018-06-05T18:24:49.436Z,62.24
2018-06-05T18:27:23.847Z,63.42
2018-06-05T18:29:58.307Z,62.98
2018-06-05T18:32:32.589Z,62.85
2018-06-05T18:35:06.999Z,63.07
2018-06-05T18:37:41.380Z,63.13
2018-06-05T18:40:15.859Z,63.39
2018-06-05T18:42:50.198Z,63.55
2018-06-05T18:45:24.616Z,63.78
2018-06-05T18:47:59.066Z,64.12
2018-06-05T18:50:33.434Z,64.46
2018-06-05T18:53:07.851Z,64.41
2018-06-05T18:55:42.304Z,64.18
2018-06-05T18:58:16.547Z,64.26
2018-06-05T19:00:50.935Z,64.57
2018-06-05T19:03:25.211Z,64.74
2018-06-05T19:05:59.563Z,64.85
2018-06-05T19:08:33.835Z,64.87
2018-06-05T19:11:08.175Z,65.22
2018-06-05T19:13:42.527Z,65.68
2018-06-05T19:16:29.719Z,65.76
2018-06-05T19:19:04.104Z,65.94
2018-06-05T19:21:38.532Z,66.07
2018-06-05T19:24:12.915Z,66.86
2018-06-05T19:26:47.303Z,67.33
2018-06-05T19:29:21.903Z,67.87
2018-06-05T19:31:56.388Z,67.33
2018-06-05T19:34:30.705Z,67.58
2018-06-05T19:37:05.048Z,68.04
2018-06-05T19:39:39.696Z,67.83
2018-06-05T19:42:14.470Z,68.27
2018-06-05T19:44:48.907Z,68.56
2018-06-05T19:47:23.208Z,69.90
2018-06-05T19:49:57.575Z,69.61
2018-06-05T19:52:31.883Z,69.37
2018-06-05T19:55:06.163Z,70.22
2018-06-05T19:57:40.576Z,70.42
2018-06-05T20:00:14.995Z,70.81
2018-06-05T20:02:49.396Z,70.57
2018-06-05T20:05:23.720Z,71.60
2018-06-05T20:07:58.087Z,71.81
2018-06-05T20:10:32.756Z,72.12
2018-06-05T20:13:07.121Z,72.80
2018-06-05T20:15:41.392Z,73.13
2018-06-05T20:18:15.851Z,73.81
2018-06-05T20:20:50.425Z,73.54
2018-06-05T20:23:24.744Z,74.72
2018-06-05T20:25:59.126Z,75.13
2018-06-05T20:28:33.536Z,74.96
2018-06-05T20:31:08.017Z,75.14
2018-06-05T20:33:42.232Z,74.86
2018-06-05T20:36:16.567Z,76.16
2018-06-05T20:38:50.914Z,75.96
2018-06-05T20:41:25.309Z,75.83
2018-06-05T20:43:59.722Z,76.50
2018-06-05T20:46:34.109Z,76.02
2018-06-05T20:49:08.848Z,76.62
2018-06-05T20:51:43.007Z,76.23
2018-06-05T20:54:17.419Z,76.35
2018-06-05T20:56:51.771Z,76.29
2018-06-05T20:59:26.100Z,76.55
2018-06-05T21:02:00.399Z,76.44
2018-06-05T21:04:34.903Z,76.66
2018-06-05T21:07:09.367Z,77.10
2018-06-05T21:09:43.675Z,77.26
2018-06-05T21:12:18.481Z,77.85
2018-06-05T21:14:52.635Z,77.43
2018-06-05T21:17:27.111Z,77.05
2018-06-05T21:20:01.536Z,77.34
2018-06-05T21:22:35.907Z,76.86
2018-06-05T21:25:10.368Z,76.46
2018-06-05T21:27:44.800Z,77.32
2018-06-05T21:30:19.535Z,76.47
2018-06-05T21:32:53.647Z,77.17
2018-06-05T21:35:28.016Z,77.32
2018-06-05T21:38:02.304Z,76.57
2018-06-05T21:40:36.656Z,76.74
2018-06-05T21:43:11.007Z,76.28
2018-06-05T21:45:45.384Z,76.54
2018-06-05T21:48:19.787Z,75.84
2018-06-05T21:50:54.140Z,75.20
2018-06-05T21:53:28.491Z,74.94
2018-06-05T21:56:02.851Z,74.62
2018-06-05T21:58:37.263Z,74.15
2018-06-05T22:01:11.612Z,74.16
2018-06-05T22:03:45.999Z,74.86
2018-06-05T22:06:20.332Z,74.84
2018-06-05T22:08:54.632Z,74.20
2018-06-05T22:11:29.135Z,73.80
2018-06-05T22:14:04.523Z,73.62
2018-06-05T22:16:38.903Z,73.39
2018-06-05T22:19:13.356Z,73.60
2018-06-05T22:21:47.664Z,74.20
2018-06-05T22:24:22.101Z,74.56
2018-06-05T22:26:56.895Z,74.06
2018-06-05T22:29:31.616Z,74.84
2018-06-05T22:32:06.007Z,74.46
2018-06-05T22:34:40.656Z,74.91
2018-06-05T22:37:15.151Z,74.80
2018-06-05T22:39:49.479Z,74.76
2018-06-05T22:42:23.948Z,75.25
2018-06-05T22:44:58.517Z,75.12
2018-06-05T22:47:32.957Z,75.43
2018-06-05T22:50:07.606Z,75.25
2018-06-05T22:52:42.172Z,75.25
2018-06-05T22:55:16.565Z,75.78
2018-06-05T22:57:51.168Z,76.08
2018-06-05T23:00:30.192Z,76.75
2018-06-05T23:03:05.105Z,76.65
2018-06-05T23:05:39.509Z,76.32
2018-06-05T23:08:13.828Z,77.35
2018-06-05T23:10:48.317Z,77.34
2018-06-05T23:13:22.728Z,77.80
2018-06-05T23:15:57.081Z,77.28
2018-06-05T23:18:31.612Z,77.40
2018-06-05T23:21:06.784Z,77.58
2018-06-05T23:23:41.480Z,77.35
2018-06-05T23:26:15.989Z,77.93
2018-06-05T23:28:50.413Z,77.84
2018-06-05T23:31:24.820Z,77.66
2018-06-05T23:33:59.369Z,77.79
2018-06-05T23:36:33.874Z,78.16
2018-06-05T23:39:08.433Z,78.62
2018-06-05T23:41:42.841Z,78.40
2018-06-05T23:44:17.156Z,78.66
2018-06-05T23:47:13.968Z,78.87
2018-06-05T23:49:48.456Z,78.87
2018-06-05T23:52:23.180Z,79.08
2018-06-05T23:54:57.656Z,78.53
2018-06-05T23:57:32.113Z,79.06
